Du har inga inställningar för hoppväder.nu

Hoppväder.nu

Senast uppdaterat 08:51

UTC-tid

2020-08-06 kl. 06:51


Sol och måne

Solen går upp 5:04 och går ner 22:07 (beräknade cirkatider)
Nästa fullmåne blir om 27 dagar (2020-09-02)

METAR

ESOE (Örebro)
(31 minuter sedan)
ESOE 060620Z 23006KT 190V260 9999 BKN010 18/16 Q1018=



ESOK (Karlstad)
(31 minuter sedan)
ESOK 060620Z 21007KT 9999 OVC009 17/16 Q1018=



ESGR (Skövde)
(31 minuter sedan)
ESGR 060620Z AUTO 22006KT 9999 FEW031/// SCT078/// BKN098/// 18/17 Q1019=



ESSD (Borlänge)
(31 minuter sedan)
ESSD 060620Z 23005KT 9999 SCT014 BKN019 17/14 Q1016=



ESOW (Västerås)
(31 minuter sedan)
ESOW 060620Z 22007KT 190V260 9999 BKN010 18/15 Q1018=



TAF

ESOE (Örebro)
(81 minuter sedan)
ESOE 060530Z 0606/0608 22010KT 9999 BKN006 BECMG 0606/0608 BKN012=



ESOK (Karlstad)
(81 minuter sedan)
ESOK 060530Z 0606/0615 22007KT 9999 -RA BKN008 BECMG 0606/0609 BKN012 BECMG 0609/0611 BKN016=



ESGR (Skövde)
ESGR



ESSD (Borlänge)
(21 minuter sedan)
ESSD 060630Z 0607/0613 23008KT 9999 SCT015 BKN025 PROB40 0607/0609 BKN012=



ESOW (Västerås)
(81 minuter sedan)
ESOW 060530Z 0606/0615 22009KT 9999 BKN030 TEMPO 0606/0608 BKN008=





Kodnycklar till TAF och METAR






LHP

(Örebro är område se32g i Delområde 4)

Översikt

ÄNDRAD ÖVERSIKT FÖR OMRÅDE se3 UTFÄRDAD 060610

GÄLLANDE DEN 6 AUGUSTI 2020 MELLAN 04 OCH 12 UTC


Väderöversikt

En högtrycksrygg förstärks över södra Sverige.

Sikt under 5 kilometer eller molnbas under 1000 fot
04-10UTC: Hela området utom se33
10-12UTC: Område se31


Måttlig eller svår isbildning
04-06UTC: Hela området utom se33


Måttlig eller svår turbulens
Väntas inte förekomma under perioden

Delområde 4

ÄNDRAD PROGNOS FÖR OMRÅDE se32 UTFÄRDAD 060610
GÄLLANDE DEN 6 AUGUSTI 2020 MELLAN 04 OCH 12 UTC

Måttlig eller svår turbulens
04-12UTC: I hela området: Väntas inte förekomma under perioden

Måttlig eller svår isbildning
04-06UTC: Område se32d,se32b,se32a,se32h,se32g,se32f,se32e,se32j,se32i: måttlig isbildning FL090 - > FL125

04-12UTC: Område se32c: Väntas inte förekomma under perioden

06-12UTC: Område se32d,se32b,se32a,se32h,se32g,se32f,se32e,se32j,se32i: Väntas inte förekomma under perioden


Sikt/Väder/Moln
04-06UTC: Område se32d,se32h,se32g,se32f,se32e,se32i: Sikt >8km i dis, lokalt <1.5km i dimma, duggregn. Molnbas >2000ft, lokalt <500ft.
Område se32b,se32a,se32j: Sikt <1.5km - >8km i dis, dimma, duggregn. Molnbas <500ft - >2000ft.

04-12UTC: Område se32c: Sikt >8km. Molnbas >2000ft.

06-08UTC: Område se32b,se32a,se32h,se32g,se32f,se32j,se32i: Sikt 1.5km - >8km i dis, duggregn, regn. Molnbas 500ft - >2000ft.
Område se32d,se32e: Sikt >8km i dis, regn, lokalt 1.5km - 3km i duggregn. Molnbas >2000ft, lokalt 500ft - 1000ft.

08-10UTC: Område se32d: Sikt 1.5km - >8km i dis, duggregn, regn. Molnbas 500ft - >2000ft.
Område se32a,se32h,se32g,se32f,se32e: Sikt >8km. Molnbas 1000ft - >2000ft.

08-12UTC: Område se32b,se32j,se32i: Sikt >8km. Molnbas >2000ft.

10-12UTC: Område se32d,se32a,se32h,se32g,se32f,se32e: Sikt >8km. Molnbas >2000ft.


Molnöversida
04-06UTC: Område se32c: Molnöversida FL110.

04-08UTC: Område se32b,se32a,se32h,se32g,se32f,se32e,se32j,se32i: Molnöversida > FL125.

04-10UTC: Område se32d: Molnöversida > FL125.

06-10UTC: Område se32c: Molnöversida FL100.

08-10UTC: Område se32b,se32j,se32i: Molnöversida FL100.

08-12UTC: Område se32a,se32h,se32g,se32f,se32e: Molnöversida FL100.

10-12UTC: Område se32c,se32b,se32j,se32i: Ingen prognos
Område se32d: Molnöversida FL100.


CB/TCU Moln
04-12UTC: I hela området: Väntas inte förekomma under perioden

Nollgradersisoterm
04-10UTC: Noll grader FL110 - > FL125.
10-12UTC: Noll grader FL115 - > FL125.

Vind vid marken
04-06UTC: Område se32c: SV/2-12 knop, byar upp till 14 knop.
Område se32b: SV/3-12 knop, byar upp till 15 knop.
Område se32g: SV-V/3-8 knop, byar upp till 15 knop.
Område se32e: SV/4-13 knop, byar upp till 19 knop.
Område se32f: SV-V/3-10 knop, byar upp till 17 knop.
Område se32d: SV-V/3-12 knop, byar upp till 18 knop.
Område se32j: SV/2-11 knop, byar upp till 16 knop.
Område se32i: SV-V/4-11 knop, byar upp till 16 knop.
Område se32a: SV/3-14 knop, byar upp till 19 knop.
Område se32h: SV/3-11 knop, byar upp till 15 knop.

06-08UTC: Område se32d: SV-V/4-13 knop, byar upp till 18 knop.
Område se32f: SV-V/4-9 knop, byar upp till 18 knop.
Område se32g: SV-V/4-9 knop, byar upp till 17 knop.
Område se32a: SV-V/5-15 knop, byar upp till 18 knop.
Område se32j: SV-V/4-11 knop, byar upp till 17 knop.
Område se32i: SV-V/5-11 knop, byar upp till 18 knop.
Område se32c: SV/5-12 knop.
Område se32b: SV/5-12 knop, byar upp till 18 knop.
Område se32e: SV-V/4-13 knop, byar upp till 19 knop.
Område se32h: SV-V/5-11 knop, byar upp till 17 knop.

08-10UTC: Område se32e: SV-V/5-13 knop, byar upp till 20 knop.
Område se32j: SV-V/5-12 knop, byar upp till 20 knop.
Område se32i: SV-V/5-10 knop, byar upp till 19 knop.
Område se32c: SV/2-11 knop, byar upp till 19 knop.
Område se32a: SV/5-15 knop, byar upp till 21 knop.
Område se32g: SV-V/5-9 knop, byar upp till 18 knop.
Område se32h: SV-V/4-11 knop, byar upp till 19 knop.
Område se32f: SV-V/5-9 knop, byar upp till 19 knop.
Område se32b: SV-V/3-11 knop, byar upp till 20 knop.
Område se32d: SV-V/4-11 knop, byar upp till 18 knop.

10-12UTC: Område se32c: S-SV/5-14 knop, byar upp till 21 knop.
Område se32a: SV/3-13 knop, byar upp till 20 knop.
Område se32b: SV/0-13 knop, byar upp till 20 knop.
Område se32g,se32f: V/4-9 knop, byar upp till 19 knop.
Område se32j: SV-V/5-11 knop, byar upp till 24 knop.
Område se32i: V/3-10 knop, byar upp till 20 knop.
Område se32d: SV-V/4-10 knop, byar upp till 21 knop.
Område se32h: SV-V/3-10 knop, byar upp till 19 knop.
Område se32e: SV-V/5-12 knop, byar upp till 21 knop.


Genomsnittlig vind och temperatur för området
2000ft:
04-06UTC: 270/22kt +13.
06-08UTC: 260/18kt +13.
08-10UTC: 260/15kt +13.
10-12UTC: 260/13kt +15.

FL50:
04-06UTC: 270/26kt +10.
06-10UTC: 270/25kt +10.
10-12UTC: 270/21kt +11.

FL100:
04-06UTC: 280/30kt +3.
06-08UTC: 270/28kt +3.
08-10UTC: 270/26kt +3.
10-12UTC: 260/22kt +3.

Lägsta QNH
1016 hPa.

OBS! endast utbredd måttlig eller svår isbildning och turbulens prognostiseras i LLF.
Avsaknad av isbildning och turbulens i prognosen utesluter inte förekomst av lätt isbildning och turbulens.
För indikation på lätt isbildning, var vänlig kontrollera om prognosen för molntopp ligger högre än nollgradersisotermen.
Förekomst av TCU eller CB medför alltid en risk för måttlig eller svår isbildning och turbulens även om det inte framgår explicit av prognosen.







Spotting

Hur fungerar spotthjälpen och Vindkartan?

Markvind är ca 2-5 m/s med byar på 9 m/s.
Vind på 600 m ca 9 m/s.
Vind på 1500 m ca 13 m/s.
Vind på 3000 m ca 14 m/s.
FXB flyger ca 22 m/s över marken på finalen.
Du driver ca 648 m bakåt i frifall. (864 m)
Lämplig spot är 17 sekunder eller 367 m efter gropen.
(27 s eller 583 m)
För små grupper eller ensamhoppare bör man vänta 7-10 sekunder mellan grupperna.
För större grupper bör man vänta 14-17 sekunder mellan grupperna.


Vindkartan

Senast uppdaterad 08:51




All data kommer från LFV.se